Louisa, Virginia
Current Conditions -  °F | °C
As of 2:35 AM on Wednesday 26 Nov 2014 (Local Time) from KLKU Reporting Station
Light Rain Light Rain  
Wind Chill: 44°   Ceiling: 5000
Heat Index: 46°   Visibility: 10mi
Dew Point: 43°   Wind: 5mph
Humidity: 87%   Direction: 350°N
Pressure: 30.06"   Gusts: NA
Location:  38.03°N, 78°W
Report Text: KLKU 260735Z AUTO 35004KT 10SM -RA OVC050 08/06 A3006 RMK AO2
Loading
Personal Weather Stations






























Interactive Weather Map New forecast layout! Learn more

10-Day Weather Forecast

Advertisements
Track Severe Weather on mobile